sensor_id;sensor_type;location;lat;lon;timestamp;pressure;altitude;pressure_sealevel;temperature;humidity
78317;BME280;67572;50.930;18.276;2023-07-30T00:00:33;98400.50;;;16.99;91.37
78317;BME280;67572;50.930;18.276;2023-07-30T00:03:37;98399.47;;;17.00;91.15
78317;BME280;67572;50.930;18.276;2023-07-30T00:06:41;98406.88;;;16.98;91.17
78317;BME280;67572;50.930;18.276;2023-07-30T00:09:45;98414.63;;;17.01;91.04
78317;BME280;67572;50.930;18.276;2023-07-30T00:12:49;98414.75;;;17.00;91.16
78317;BME280;67572;50.930;18.276;2023-07-30T00:15:52;98409.06;;;16.95;90.83
78317;BME280;67572;50.930;18.276;2023-07-30T00:18:56;98422.28;;;16.88;90.89
78317;BME280;67572;50.930;18.276;2023-07-30T00:21:59;98427.81;;;16.86;90.64
78317;BME280;67572;50.930;18.276;2023-07-30T00:25:05;98426.66;;;16.89;90.48
78317;BME280;67572;50.930;18.276;2023-07-30T00:28:10;98423.78;;;16.82;90.65
78317;BME280;67572;50.930;18.276;2023-07-30T00:31:14;98422.41;;;16.70;90.95
78317;BME280;67572;50.930;18.276;2023-07-30T00:34:18;98422.66;;;16.67;91.17
78317;BME280;67572;50.930;18.276;2023-07-30T00:37:21;98425.59;;;16.74;90.98
78317;BME280;67572;50.930;18.276;2023-07-30T00:40:27;98422.00;;;16.65;91.45
78317;BME280;67572;50.930;18.276;2023-07-30T00:43:30;98432.31;;;16.52;91.74
78317;BME280;67572;50.930;18.276;2023-07-30T00:46:34;98434.56;;;16.64;91.34
78317;BME280;67572;50.930;18.276;2023-07-30T00:49:38;98437.84;;;16.50;91.20
78317;BME280;67572;50.930;18.276;2023-07-30T00:52:43;98437.00;;;16.50;91.53
78317;BME280;67572;50.930;18.276;2023-07-30T00:55:48;98443.38;;;16.49;90.81
78317;BME280;67572;50.930;18.276;2023-07-30T00:58:53;98446.06;;;16.49;90.85
78317;BME280;67572;50.930;18.276;2023-07-30T01:01:57;98452.56;;;16.46;91.05
78317;BME280;67572;50.930;18.276;2023-07-30T01:05:02;98451.84;;;16.36;91.35
78317;BME280;67572;50.930;18.276;2023-07-30T01:08:06;98450.47;;;16.32;91.82
78317;BME280;67572;50.930;18.276;2023-07-30T01:11:11;98452.75;;;16.19;92.08
78317;BME280;67572;50.930;18.276;2023-07-30T01:14:18;98460.81;;;16.19;91.99
78317;BME280;67572;50.930;18.276;2023-07-30T01:17:23;98459.25;;;16.16;92.06
78317;BME280;67572;50.930;18.276;2023-07-30T01:20:29;98458.19;;;16.09;92.46
78317;BME280;67572;50.930;18.276;2023-07-30T01:23:34;98449.53;;;16.15;92.16
78317;BME280;67572;50.930;18.276;2023-07-30T01:26:42;98449.09;;;16.02;92.70
78317;BME280;67572;50.930;18.276;2023-07-30T01:29:52;98450.59;;;15.96;92.96
78317;BME280;67572;50.930;18.276;2023-07-30T01:32:58;98448.59;;;15.98;93.12
78317;BME280;67572;50.930;18.276;2023-07-30T01:36:02;98446.34;;;15.94;93.12
78317;BME280;67572;50.930;18.276;2023-07-30T01:39:09;98444.84;;;15.91;93.19
78317;BME280;67572;50.930;18.276;2023-07-30T01:42:13;98449.38;;;15.91;92.85
78317;BME280;67572;50.930;18.276;2023-07-30T01:45:16;98448.69;;;15.89;92.72
78317;BME280;67572;50.930;18.276;2023-07-30T01:48:20;98449.31;;;15.82;92.84
78317;BME280;67572;50.930;18.276;2023-07-30T01:51:23;98460.41;;;15.88;93.18
78317;BME280;67572;50.930;18.276;2023-07-30T01:54:28;98468.69;;;15.76;93.60
78317;BME280;67572;50.930;18.276;2023-07-30T01:57:32;98467.84;;;15.76;93.51
78317;BME280;67572;50.930;18.276;2023-07-30T02:00:35;98466.53;;;15.62;93.95
78317;BME280;67572;50.930;18.276;2023-07-30T02:03:39;98472.03;;;15.61;94.28
78317;BME280;67572;50.930;18.276;2023-07-30T02:06:43;98472.59;;;15.64;94.07
78317;BME280;67572;50.930;18.276;2023-07-30T02:09:50;98473.88;;;15.60;93.76
78317;BME280;67572;50.930;18.276;2023-07-30T02:12:54;98482.09;;;15.49;94.27
78317;BME280;67572;50.930;18.276;2023-07-30T02:15:57;98481.13;;;15.50;93.85
78317;BME280;67572;50.930;18.276;2023-07-30T02:19:01;98478.66;;;15.39;94.26
78317;BME280;67572;50.930;18.276;2023-07-30T02:22:05;98481.66;;;15.36;94.30
78317;BME280;67572;50.930;18.276;2023-07-30T02:25:10;98484.41;;;15.44;94.00
78317;BME280;67572;50.930;18.276;2023-07-30T02:28:13;98470.34;;;15.42;93.64
78317;BME280;67572;50.930;18.276;2023-07-30T02:31:17;98477.06;;;15.46;93.51
78317;BME280;67572;50.930;18.276;2023-07-30T02:34:21;98473.88;;;15.42;93.22
78317;BME280;67572;50.930;18.276;2023-07-30T02:37:24;98466.66;;;15.43;93.24
78317;BME280;67572;50.930;18.276;2023-07-30T02:40:29;98467.94;;;15.39;93.12
78317;BME280;67572;50.930;18.276;2023-07-30T02:43:33;98465.75;;;15.34;93.07
78317;BME280;67572;50.930;18.276;2023-07-30T02:46:36;98468.94;;;15.38;92.84
78317;BME280;67572;50.930;18.276;2023-07-30T02:49:40;98462.31;;;15.42;91.94
78317;BME280;67572;50.930;18.276;2023-07-30T02:52:43;98453.03;;;15.36;91.68
78317;BME280;67572;50.930;18.276;2023-07-30T02:55:48;98454.31;;;15.32;91.25
78317;BME280;67572;50.930;18.276;2023-07-30T02:58:52;98453.13;;;15.44;90.82
78317;BME280;67572;50.930;18.276;2023-07-30T03:01:55;98459.16;;;15.46;90.33
78317;BME280;67572;50.930;18.276;2023-07-30T03:04:59;98463.75;;;15.36;90.12
78317;BME280;67572;50.930;18.276;2023-07-30T03:08:03;98473.69;;;15.44;89.34
78317;BME280;67572;50.930;18.276;2023-07-30T03:11:08;98474.00;;;15.41;89.26
78317;BME280;67572;50.930;18.276;2023-07-30T03:14:11;98474.63;;;15.35;89.51
78317;BME280;67572;50.930;18.276;2023-07-30T03:17:15;98479.81;;;15.36;89.47
78317;BME280;67572;50.930;18.276;2023-07-30T03:20:19;98484.41;;;15.44;88.99
78317;BME280;67572;50.930;18.276;2023-07-30T03:23:22;98480.50;;;15.38;88.77
78317;BME280;67572;50.930;18.276;2023-07-30T03:26:27;98472.63;;;15.37;88.82
78317;BME280;67572;50.930;18.276;2023-07-30T03:29:30;98476.22;;;15.45;88.25
78317;BME280;67572;50.930;18.276;2023-07-30T03:32:34;98468.22;;;15.63;87.69
78317;BME280;67572;50.930;18.276;2023-07-30T03:35:37;98471.09;;;15.52;87.16
78317;BME280;67572;50.930;18.276;2023-07-30T03:38:41;98465.94;;;15.41;87.71
78317;BME280;67572;50.930;18.276;2023-07-30T03:41:46;98465.59;;;15.36;88.26
78317;BME280;67572;50.930;18.276;2023-07-30T03:44:50;98471.19;;;15.42;88.26
78317;BME280;67572;50.930;18.276;2023-07-30T03:47:53;98476.53;;;15.42;88.08
78317;BME280;67572;50.930;18.276;2023-07-30T03:50:57;98480.81;;;15.53;87.63
78317;BME280;67572;50.930;18.276;2023-07-30T03:54:01;98486.34;;;15.51;87.68
78317;BME280;67572;50.930;18.276;2023-07-30T03:57:06;98487.25;;;15.60;86.96
78317;BME280;67572;50.930;18.276;2023-07-30T04:00:10;98488.25;;;15.59;86.72
78317;BME280;67572;50.930;18.276;2023-07-30T04:03:16;98492.03;;;15.66;86.47
78317;BME280;67572;50.930;18.276;2023-07-30T04:06:20;98498.63;;;15.72;86.90
78317;BME280;67572;50.930;18.276;2023-07-30T04:09:24;98496.22;;;15.51;86.93
78317;BME280;67572;50.930;18.276;2023-07-30T04:12:28;98508.47;;;15.53;87.06
78317;BME280;67572;50.930;18.276;2023-07-30T04:15:32;98513.50;;;15.57;87.19
78317;BME280;67572;50.930;18.276;2023-07-30T04:18:35;98512.88;;;15.45;87.51
78317;BME280;67572;50.930;18.276;2023-07-30T04:21:39;98517.19;;;15.55;87.31
78317;BME280;67572;50.930;18.276;2023-07-30T04:24:42;98520.25;;;15.61;86.82
78317;BME280;67572;50.930;18.276;2023-07-30T04:27:47;98527.13;;;15.91;86.01
78317;BME280;67572;50.930;18.276;2023-07-30T04:30:51;98528.72;;;15.84;86.13
78317;BME280;67572;50.930;18.276;2023-07-30T04:33:54;98533.00;;;15.76;nan
78317;BME280;67572;50.930;18.276;2023-07-30T04:36:58;98527.19;;;15.81;86.12
78317;BME280;67572;50.930;18.276;2023-07-30T04:40:02;98526.94;;;15.92;85.32
78317;BME280;67572;50.930;18.276;2023-07-30T04:43:07;98523.34;;;16.19;84.29
78317;BME280;67572;50.930;18.276;2023-07-30T04:46:12;98519.94;;;16.35;83.51
78317;BME280;67572;50.930;18.276;2023-07-30T04:49:16;98510.81;;;16.28;83.76
78317;BME280;67572;50.930;18.276;2023-07-30T04:52:21;98512.38;;;16.56;82.72
78317;BME280;67572;50.930;18.276;2023-07-30T04:55:24;98522.41;;;16.54;82.48
78317;BME280;67572;50.930;18.276;2023-07-30T04:58:29;98523.06;;;16.74;82.11
78317;BME280;67572;50.930;18.276;2023-07-30T05:01:33;98519.53;;;16.74;82.33
78317;BME280;67572;50.930;18.276;2023-07-30T05:04:37;98517.19;;;17.05;80.96
78317;BME280;67572;50.930;18.276;2023-07-30T05:07:41;98519.88;;;17.05;81.13
78317;BME280;67572;50.930;18.276;2023-07-30T05:10:44;98527.13;;;17.12;80.75
78317;BME280;67572;50.930;18.276;2023-07-30T05:13:49;98531.38;;;17.23;80.71
78317;BME280;67572;50.930;18.276;2023-07-30T05:16:52;98531.34;;;17.73;79.03
78317;BME280;67572;50.930;18.276;2023-07-30T05:19:56;98534.47;;;17.53;78.86
78317;BME280;67572;50.930;18.276;2023-07-30T05:22:59;98537.22;;;17.69;78.78
78317;BME280;67572;50.930;18.276;2023-07-30T05:26:04;98531.31;;;17.65;78.48
78317;BME280;67572;50.930;18.276;2023-07-30T05:29:08;98529.63;;;17.64;79.15
78317;BME280;67572;50.930;18.276;2023-07-30T05:32:12;98529.22;;;17.93;78.61
78317;BME280;67572;50.930;18.276;2023-07-30T05:35:15;98534.06;;;17.82;78.35
78317;BME280;67572;50.930;18.276;2023-07-30T05:38:20;98526.84;;;17.90;77.54
78317;BME280;67572;50.930;18.276;2023-07-30T05:41:24;98519.47;;;18.09;76.94
78317;BME280;67572;50.930;18.276;2023-07-30T05:44:29;98517.13;;;18.22;77.05
78317;BME280;67572;50.930;18.276;2023-07-30T05:47:32;98516.94;;;18.32;76.74
78317;BME280;67572;50.930;18.276;2023-07-30T05:50:36;98511.56;;;18.32;75.82
78317;BME280;67572;50.930;18.276;2023-07-30T05:53:39;98519.44;;;18.49;75.95
78317;BME280;67572;50.930;18.276;2023-07-30T05:56:43;98519.28;;;18.59;75.24
78317;BME280;67572;50.930;18.276;2023-07-30T05:59:48;98519.72;;;18.87;73.93
78317;BME280;67572;50.930;18.276;2023-07-30T06:02:51;98518.69;;;19.04;73.48
78317;BME280;67572;50.930;18.276;2023-07-30T06:05:55;98525.25;;;19.02;73.01
78317;BME280;67572;50.930;18.276;2023-07-30T06:08:58;98541.00;;;19.21;72.94
78317;BME280;67572;50.930;18.276;2023-07-30T06:12:02;98540.13;;;19.29;72.60
78317;BME280;67572;50.930;18.276;2023-07-30T06:15:09;98547.78;;;19.48;72.07
78317;BME280;67572;50.930;18.276;2023-07-30T06:18:12;98545.03;;;19.64;71.70
78317;BME280;67572;50.930;18.276;2023-07-30T06:21:16;98553.13;;;19.64;71.59
78317;BME280;67572;50.930;18.276;2023-07-30T06:24:19;98558.03;;;19.61;70.74
78317;BME280;67572;50.930;18.276;2023-07-30T06:27:22;98560.44;;;19.79;70.79
78317;BME280;67572;50.930;18.276;2023-07-30T06:30:27;98557.06;;;19.85;70.16
78317;BME280;67572;50.930;18.276;2023-07-30T06:33:31;98560.66;;;20.00;69.24
78317;BME280;67572;50.930;18.276;2023-07-30T06:36:34;98563.13;;;20.10;69.23
78317;BME280;67572;50.930;18.276;2023-07-30T06:39:38;98565.56;;;20.42;68.29
78317;BME280;67572;50.930;18.276;2023-07-30T06:42:41;98565.53;;;20.28;68.24
78317;BME280;67572;50.930;18.276;2023-07-30T06:45:46;98568.44;;;20.49;68.18
78317;BME280;67572;50.930;18.276;2023-07-30T06:48:50;98565.22;;;20.83;67.34
78317;BME280;67572;50.930;18.276;2023-07-30T06:51:53;98564.66;;;20.73;67.29
78317;BME280;67572;50.930;18.276;2023-07-30T06:54:57;98568.31;;;20.80;66.71
78317;BME280;67572;50.930;18.276;2023-07-30T06:58:00;98571.97;;;21.02;65.71
78317;BME280;67572;50.930;18.276;2023-07-30T07:01:05;98573.44;;;20.90;65.72
78317;BME280;67572;50.930;18.276;2023-07-30T07:04:09;98568.97;;;20.97;65.88
78317;BME280;67572;50.930;18.276;2023-07-30T07:07:13;98563.47;;;21.64;64.55
78317;BME280;67572;50.930;18.276;2023-07-30T07:10:16;98573.28;;;21.50;65.09
78317;BME280;67572;50.930;18.276;2023-07-30T07:13:20;98571.81;;;21.33;65.50
78317;BME280;67572;50.930;18.276;2023-07-30T07:16:25;98569.28;;;21.31;64.96
78317;BME280;67572;50.930;18.276;2023-07-30T07:19:29;98568.38;;;21.75;63.84
78317;BME280;67572;50.930;18.276;2023-07-30T07:22:33;98572.00;;;21.46;64.77
78317;BME280;67572;50.930;18.276;2023-07-30T07:25:37;98573.22;;;21.80;63.80
78317;BME280;67572;50.930;18.276;2023-07-30T07:28:40;98574.47;;;21.99;63.16
78317;BME280;67572;50.930;18.276;2023-07-30T07:31:46;98571.06;;;21.39;63.78
78317;BME280;67572;50.930;18.276;2023-07-30T07:34:50;98567.13;;;21.56;63.27
78317;BME280;67572;50.930;18.276;2023-07-30T07:37:53;98568.25;;;21.83;63.02
78317;BME280;67572;50.930;18.276;2023-07-30T07:40:58;98573.56;;;21.92;62.64
78317;BME280;67572;50.930;18.276;2023-07-30T07:44:09;98565.78;;;22.03;62.05
78317;BME280;67572;50.930;18.276;2023-07-30T07:47:15;98568.19;;;22.13;60.79
78317;BME280;67572;50.930;18.276;2023-07-30T07:50:18;98576.16;;;22.00;62.19
78317;BME280;67572;50.930;18.276;2023-07-30T07:53:22;98571.16;;;22.39;61.77
78317;BME280;67572;50.930;18.276;2023-07-30T07:56:26;98580.41;;;22.73;62.39
78317;BME280;67572;50.930;18.276;2023-07-30T07:59:30;98581.50;;;23.41;61.96
78317;BME280;67572;50.930;18.276;2023-07-30T08:02:35;98575.25;;;22.78;60.48
78317;BME280;67572;50.930;18.276;2023-07-30T08:05:38;98576.38;;;22.41;61.67
78317;BME280;67572;50.930;18.276;2023-07-30T08:08:42;98577.22;;;22.20;63.16
78317;BME280;67572;50.930;18.276;2023-07-30T08:11:46;98581.53;;;22.57;62.11
78317;BME280;67572;50.930;18.276;2023-07-30T08:14:49;98575.13;;;22.65;61.93
78317;BME280;67572;50.930;18.276;2023-07-30T08:17:55;98579.81;;;22.78;61.71
78317;BME280;67572;50.930;18.276;2023-07-30T08:20:59;98580.41;;;22.94;61.29
78317;BME280;67572;50.930;18.276;2023-07-30T08:24:04;98582.63;;;22.63;62.11
78317;BME280;67572;50.930;18.276;2023-07-30T08:27:07;98578.38;;;22.82;61.19
78317;BME280;67572;50.930;18.276;2023-07-30T08:30:12;98585.53;;;22.61;61.46
78317;BME280;67572;50.930;18.276;2023-07-30T08:34:41;98576.81;;;22.66;60.53
78317;BME280;67572;50.930;18.276;2023-07-30T08:37:45;98578.75;;;23.28;59.04
78317;BME280;67572;50.930;18.276;2023-07-30T08:40:49;98577.53;;;23.37;59.59
78317;BME280;67572;50.930;18.276;2023-07-30T08:43:53;98579.03;;;23.12;60.53
78317;BME280;67572;50.930;18.276;2023-07-30T08:46:57;98576.53;;;23.45;59.50
78317;BME280;67572;50.930;18.276;2023-07-30T08:50:02;98579.50;;;24.04;56.94
78317;BME280;67572;50.930;18.276;2023-07-30T08:53:07;98582.50;;;23.34;57.72
78317;BME280;67572;50.930;18.276;2023-07-30T08:56:12;98589.56;;;23.21;58.72
78317;BME280;67572;50.930;18.276;2023-07-30T08:59:15;98579.84;;;23.75;57.18
78317;BME280;67572;50.930;18.276;2023-07-30T09:02:26;98593.19;;;23.42;58.88
78317;BME280;67572;50.930;18.276;2023-07-30T09:05:34;98589.19;;;23.31;58.08
78317;BME280;67572;50.930;18.276;2023-07-30T09:08:38;98588.38;;;23.78;57.55
78317;BME280;67572;50.930;18.276;2023-07-30T09:11:42;98591.94;;;23.79;57.95
78317;BME280;67572;50.930;18.276;2023-07-30T09:14:50;98586.00;;;24.03;56.20
78317;BME280;67572;50.930;18.276;2023-07-30T09:17:54;98581.22;;;23.64;55.62
78317;BME280;67572;50.930;18.276;2023-07-30T09:21:02;98581.53;;;23.48;56.61
78317;BME280;67572;50.930;18.276;2023-07-30T09:24:05;98574.34;;;23.62;56.20
78317;BME280;67572;50.930;18.276;2023-07-30T09:27:10;98581.91;;;23.38;57.22
78317;BME280;67572;50.930;18.276;2023-07-30T09:30:14;98578.75;;;23.35;56.85
78317;BME280;67572;50.930;18.276;2023-07-30T09:33:18;98575.88;;;23.84;55.06
78317;BME280;67572;50.930;18.276;2023-07-30T09:36:25;98582.41;;;24.03;54.62
78317;BME280;67572;50.930;18.276;2023-07-30T09:39:28;98567.81;;;24.17;55.25
78317;BME280;67572;50.930;18.276;2023-07-30T09:42:32;98574.19;;;23.76;54.82
78317;BME280;67572;50.930;18.276;2023-07-30T09:45:39;98574.25;;;24.03;54.41
78317;BME280;67572;50.930;18.276;2023-07-30T09:48:43;98566.97;;;24.17;54.02
78317;BME280;67572;50.930;18.276;2023-07-30T09:51:48;98569.28;;;24.06;53.79
78317;BME280;67572;50.930;18.276;2023-07-30T09:54:54;98569.22;;;23.87;53.21
78317;BME280;67572;50.930;18.276;2023-07-30T09:57:59;98569.41;;;23.85;53.84
78317;BME280;67572;50.930;18.276;2023-07-30T10:01:03;98565.22;;;23.76;54.52
78317;BME280;67572;50.930;18.276;2023-07-30T10:04:09;98558.59;;;23.98;53.35
78317;BME280;67572;50.930;18.276;2023-07-30T10:07:19;98560.09;;;24.21;53.44
78317;BME280;67572;50.930;18.276;2023-07-30T10:10:24;98562.69;;;24.49;53.96
78317;BME280;67572;50.930;18.276;2023-07-30T10:13:28;98546.50;;;24.14;53.26
78317;BME280;67572;50.930;18.276;2023-07-30T10:16:32;98546.09;;;24.24;52.47
78317;BME280;67572;50.930;18.276;2023-07-30T10:19:36;98550.50;;;24.25;51.77
78317;BME280;67572;50.930;18.276;2023-07-30T10:22:41;98547.75;;;24.05;52.79
78317;BME280;67572;50.930;18.276;2023-07-30T10:25:46;98549.84;;;24.09;51.76
78317;BME280;67572;50.930;18.276;2023-07-30T10:32:12;98547.31;;;24.01;51.84
78317;BME280;67572;50.930;18.276;2023-07-30T10:35:40;98545.84;;;23.99;50.95
78317;BME280;67572;50.930;18.276;2023-07-30T10:38:45;98549.09;;;24.49;51.85
78317;BME280;67572;50.930;18.276;2023-07-30T10:41:50;98545.72;;;24.27;52.43
78317;BME280;67572;50.930;18.276;2023-07-30T10:44:57;98557.38;;;24.14;52.66
78317;BME280;67572;50.930;18.276;2023-07-30T10:48:04;98549.59;;;23.91;52.83
78317;BME280;67572;50.930;18.276;2023-07-30T10:51:09;98547.34;;;24.08;53.98
78317;BME280;67572;50.930;18.276;2023-07-30T10:54:14;98547.50;;;23.93;52.85
78317;BME280;67572;50.930;18.276;2023-07-30T10:57:19;98555.59;;;23.73;53.07
78317;BME280;67572;50.930;18.276;2023-07-30T11:00:23;98555.41;;;23.75;54.47
78317;BME280;67572;50.930;18.276;2023-07-30T11:03:27;98547.66;;;23.78;54.59
78317;BME280;67572;50.930;18.276;2023-07-30T11:06:31;98548.19;;;24.15;54.53
78317;BME280;67572;50.930;18.276;2023-07-30T11:09:35;98548.88;;;24.50;52.80
78317;BME280;67572;50.930;18.276;2023-07-30T11:12:39;98552.41;;;24.38;53.60
78317;BME280;67572;50.930;18.276;2023-07-30T11:15:43;98549.84;;;24.16;52.21
78317;BME280;67572;50.930;18.276;2023-07-30T11:18:47;98551.38;;;24.52;51.90
78317;BME280;67572;50.930;18.276;2023-07-30T11:21:52;98543.63;;;24.62;51.99
78317;BME280;67572;50.930;18.276;2023-07-30T11:24:58;98542.63;;;24.56;52.63
78317;BME280;67572;50.930;18.276;2023-07-30T11:28:03;98540.50;;;24.78;51.84
78317;BME280;67572;50.930;18.276;2023-07-30T11:31:09;98542.19;;;24.66;51.86
78317;BME280;67572;50.930;18.276;2023-07-30T11:34:14;98539.06;;;24.43;51.51
78317;BME280;67572;50.930;18.276;2023-07-30T11:37:17;98542.16;;;24.40;51.27
78317;BME280;67572;50.930;18.276;2023-07-30T11:40:22;98537.59;;;24.86;51.87
78317;BME280;67572;50.930;18.276;2023-07-30T11:43:26;98534.19;;;25.17;50.91
78317;BME280;67572;50.930;18.276;2023-07-30T11:46:30;98540.09;;;24.55;49.95
78317;BME280;67572;50.930;18.276;2023-07-30T11:49:37;98534.81;;;24.20;50.31
78317;BME280;67572;50.930;18.276;2023-07-30T11:52:52;98534.84;;;24.27;50.68
78317;BME280;67572;50.930;18.276;2023-07-30T11:55:57;98526.91;;;25.05;49.27
78317;BME280;67572;50.930;18.276;2023-07-30T11:59:02;98528.91;;;25.36;47.84
78317;BME280;67572;50.930;18.276;2023-07-30T12:02:07;98521.38;;;25.31;46.38
78317;BME280;67572;50.930;18.276;2023-07-30T12:05:12;98522.69;;;25.09;46.51
78317;BME280;67572;50.930;18.276;2023-07-30T12:08:17;98526.59;;;25.39;45.26
78317;BME280;67572;50.930;18.276;2023-07-30T12:11:23;98519.78;;;24.97;46.77
78317;BME280;67572;50.930;18.276;2023-07-30T12:14:28;98523.03;;;25.84;45.14
78317;BME280;67572;50.930;18.276;2023-07-30T12:17:33;98524.44;;;26.31;45.37
78317;BME280;67572;50.930;18.276;2023-07-30T12:20:37;98521.38;;;25.31;46.64
78317;BME280;67572;50.930;18.276;2023-07-30T12:23:40;98515.34;;;25.67;47.04
78317;BME280;67572;50.930;18.276;2023-07-30T12:26:46;98503.97;;;26.72;43.07
78317;BME280;67572;50.930;18.276;2023-07-30T12:29:50;98499.59;;;26.71;42.80
78317;BME280;67572;50.930;18.276;2023-07-30T12:32:54;98499.13;;;25.48;46.99
78317;BME280;67572;50.930;18.276;2023-07-30T12:35:57;98503.13;;;25.90;46.38
78317;BME280;67572;50.930;18.276;2023-07-30T12:39:01;98496.97;;;27.01;43.29
78317;BME280;67572;50.930;18.276;2023-07-30T12:42:06;98496.72;;;27.57;42.50
78317;BME280;67572;50.930;18.276;2023-07-30T12:45:10;98495.53;;;26.98;43.57
78317;BME280;67572;50.930;18.276;2023-07-30T12:48:14;98496.44;;;26.92;43.46
78317;BME280;67572;50.930;18.276;2023-07-30T12:51:18;98488.50;;;27.46;41.60
78317;BME280;67572;50.930;18.276;2023-07-30T12:54:21;98491.66;;;27.61;42.52
78317;BME280;67572;50.930;18.276;2023-07-30T12:57:26;98494.81;;;27.09;42.86
78317;BME280;67572;50.930;18.276;2023-07-30T13:00:29;98492.09;;;27.58;41.58
78317;BME280;67572;50.930;18.276;2023-07-30T13:03:33;98489.44;;;26.78;41.49
78317;BME280;67572;50.930;18.276;2023-07-30T13:06:37;98486.34;;;26.49;43.81
78317;BME280;67572;50.930;18.276;2023-07-30T13:09:41;98488.13;;;26.62;42.95
78317;BME280;67572;50.930;18.276;2023-07-30T13:12:46;98480.34;;;26.41;42.33
78317;BME280;67572;50.930;18.276;2023-07-30T13:15:49;98477.03;;;26.07;43.51
78317;BME280;67572;50.930;18.276;2023-07-30T13:18:53;98472.41;;;26.39;43.28
78317;BME280;67572;50.930;18.276;2023-07-30T13:21:59;98476.69;;;26.53;42.49
78317;BME280;67572;50.930;18.276;2023-07-30T13:25:03;98466.72;;;26.41;42.65
78317;BME280;67572;50.930;18.276;2023-07-30T13:28:08;98467.88;;;26.51;42.80
78317;BME280;67572;50.930;18.276;2023-07-30T13:31:11;98469.47;;;26.09;43.44
78317;BME280;67572;50.930;18.276;2023-07-30T13:34:15;98479.56;;;25.64;44.26
78317;BME280;67572;50.930;18.276;2023-07-30T13:37:19;98471.44;;;25.57;43.96
78317;BME280;67572;50.930;18.276;2023-07-30T13:40:22;98468.72;;;25.57;45.13
78317;BME280;67572;50.930;18.276;2023-07-30T13:43:28;98463.84;;;25.66;44.97
78317;BME280;67572;50.930;18.276;2023-07-30T13:46:31;98462.75;;;25.35;44.75
78317;BME280;67572;50.930;18.276;2023-07-30T13:49:35;98464.41;;;25.36;45.66
78317;BME280;67572;50.930;18.276;2023-07-30T13:52:39;98467.28;;;24.90;46.60
78317;BME280;67572;50.930;18.276;2023-07-30T13:55:42;98466.47;;;24.83;46.84
78317;BME280;67572;50.930;18.276;2023-07-30T13:58:48;98473.41;;;24.72;46.59
78317;BME280;67572;50.930;18.276;2023-07-30T14:01:51;98475.06;;;24.60;46.93
78317;BME280;67572;50.930;18.276;2023-07-30T14:04:55;98472.78;;;24.50;47.87
78317;BME280;67572;50.930;18.276;2023-07-30T14:07:59;98460.84;;;24.25;48.62
78317;BME280;67572;50.930;18.276;2023-07-30T14:11:03;98464.00;;;24.22;50.79
78317;BME280;67572;50.930;18.276;2023-07-30T14:14:08;98475.47;;;24.17;51.59
78317;BME280;67572;50.930;18.276;2023-07-30T14:17:11;98481.91;;;23.76;52.77
78317;BME280;67572;50.930;18.276;2023-07-30T14:20:17;98493.97;;;23.13;57.30
78317;BME280;67572;50.930;18.276;2023-07-30T14:23:21;98493.47;;;22.19;61.23
78317;BME280;67572;50.930;18.276;2023-07-30T14:26:25;98498.91;;;21.61;64.59
78317;BME280;67572;50.930;18.276;2023-07-30T14:29:30;98493.31;;;21.63;65.25
78317;BME280;67572;50.930;18.276;2023-07-30T14:32:33;98490.63;;;21.63;64.90
78317;BME280;67572;50.930;18.276;2023-07-30T14:35:37;98482.44;;;21.77;62.62
78317;BME280;67572;50.930;18.276;2023-07-30T14:38:40;98480.59;;;21.99;62.97
78317;BME280;67572;50.930;18.276;2023-07-30T14:41:44;98484.50;;;22.39;60.65
78317;BME280;67572;50.930;18.276;2023-07-30T14:44:49;98475.28;;;22.62;60.51
78317;BME280;67572;50.930;18.276;2023-07-30T14:47:52;98475.84;;;22.57;59.25
78317;BME280;67572;50.930;18.276;2023-07-30T14:50:56;98475.31;;;22.68;58.60
78317;BME280;67572;50.930;18.276;2023-07-30T14:53:59;98476.78;;;22.43;59.25
78317;BME280;67572;50.930;18.276;2023-07-30T14:57:04;98473.44;;;22.69;59.69
78317;BME280;67572;50.930;18.276;2023-07-30T15:00:11;98478.56;;;22.57;59.49
78317;BME280;67572;50.930;18.276;2023-07-30T15:03:15;98471.44;;;22.50;58.70
78317;BME280;67572;50.930;18.276;2023-07-30T15:06:19;98469.00;;;22.33;58.86
78317;BME280;67572;50.930;18.276;2023-07-30T15:10:47;98473.66;;;22.74;58.69
78317;BME280;67572;50.930;18.276;2023-07-30T15:13:51;98467.47;;;23.15;56.85
78317;BME280;67572;50.930;18.276;2023-07-30T15:16:55;98462.25;;;23.68;52.08
78317;BME280;67572;50.930;18.276;2023-07-30T15:19:58;98455.50;;;23.50;50.91
78317;BME280;67572;50.930;18.276;2023-07-30T15:23:02;98460.81;;;23.24;53.03
78317;BME280;67572;50.930;18.276;2023-07-30T15:26:07;98467.72;;;23.26;53.17
78317;BME280;67572;50.930;18.276;2023-07-30T15:30:51;98470.28;;;22.93;53.39
78317;BME280;67572;50.930;18.276;2023-07-30T15:34:18;98472.03;;;22.45;56.07
78317;BME280;67572;50.930;18.276;2023-07-30T15:37:23;98472.00;;;22.17;57.22
78317;BME280;67572;50.930;18.276;2023-07-30T15:40:26;98481.53;;;22.34;57.49
78317;BME280;67572;50.930;18.276;2023-07-30T15:43:30;98483.44;;;22.40;57.34
78317;BME280;67572;50.930;18.276;2023-07-30T15:46:36;98485.28;;;22.12;57.33
78317;BME280;67572;50.930;18.276;2023-07-30T15:49:41;98488.25;;;22.17;58.26
78317;BME280;67572;50.930;18.276;2023-07-30T15:52:45;98491.66;;;22.26;57.41
78317;BME280;67572;50.930;18.276;2023-07-30T15:55:49;98488.75;;;22.27;56.92
78317;BME280;67572;50.930;18.276;2023-07-30T15:58:53;98497.16;;;22.11;57.15
78317;BME280;67572;50.930;18.276;2023-07-30T16:01:57;98497.41;;;22.16;56.57
78317;BME280;67572;50.930;18.276;2023-07-30T16:05:01;98489.16;;;22.24;55.76
78317;BME280;67572;50.930;18.276;2023-07-30T16:08:05;98479.97;;;22.47;54.64
78317;BME280;67572;50.930;18.276;2023-07-30T16:11:10;98488.03;;;22.40;55.00